< < Back
Terminal Aerodrome Forecast


Current Version              Previous Versions:   1  2  3  4  5  6  7  8  9  

Terminal Aerodrome Forecast

664
FTUS42 KTAE 240520
TAFDHN
TAF
KDHN 240520Z 2406/2506 24008KT P6SM FEW050=

Latest METAR

292
SAUS70 KWBC 242300 RRE
MTRDHN
METAR KDHN 242253Z 22009KT 10SM FEW060 33/20 A3006 RMK AO2 SLP170
T03330200


USA.gov is the U.S. government's official web portal to all federal, state and local government web resources and services.